Terminal Aerodrome Forecast
Issued by NWS

Home | Current Version | Previous Version | Text Only | Print | Product List | Glossary On
Versions: 1 2 3 4 5 6 7 8 9 10 11 12 13
000
FTUS45 KVEF 251722
TAFEED
TAF
KEED 251722Z 2518/2618 VRB05KT P6SM FEW250
     FM252100 19007KT P6SM BKN200
     FM260200 24006KT P6SM FEW150 BKN200
     FM260600 30007KT P6SM FEW090 BKN150=

USA.gov is the U.S. government's official web portal to all federal, state and local government web resources and services.